Time;durP1;ratioP1;P1;durP2;ratioP2;P2;SDS_P1;SDS_P2;PMS_P1;PMS_P2;Temp;Humidity;BMP_temperature;BMP_pressure;BME280_temperature;BME280_humidity;BME280_pressure;Samples;Min_cycle;Max_cycle;Signal;HPM_P1;HPM_P2
2022/05/21 00:01:53;;;;;;;6.43;1.80;;;;;;;16.60;67.41;100917.63;5106417;27;20044;-73
2022/05/21 00:04:19;;;;;;;3.08;1.70;;;;;;;16.53;67.50;100901.34;5106468;27;20052;-73
2022/05/21 00:06:46;;;;;;;5.40;2.10;;;;;;;16.65;67.82;100909.38;5086423;28;20044;-73
2022/05/21 00:09:13;;;;;;;4.20;2.17;;;;;;;16.69;66.93;100905.53;5086301;28;20067;-73
2022/05/21 00:11:40;;;;;;;3.53;2.30;;;;;;;16.15;68.52;100918.34;5099257;28;20059;-73
2022/05/21 00:14:07;;;;;;;3.47;2.10;;;;;;;16.12;68.49;100913.25;5104720;28;20572;-73
2022/05/21 00:16:35;;;;;;;4.90;2.47;;;;;;;16.27;68.25;100914.78;5106706;27;20250;-74
2022/05/21 00:19:01;;;;;;;6.50;3.25;;;;;;;16.32;68.00;100939.97;5106387;28;20051;-73
2022/05/21 00:21:27;;;;;;;5.63;2.25;;;;;;;16.24;68.55;100920.31;5105280;27;20526;-73
2022/05/21 00:23:54;;;;;;;6.15;2.80;;;;;;;16.22;68.35;100930.16;5105835;28;20095;-73
2022/05/21 00:26:21;;;;;;;6.55;2.33;;;;;;;16.24;68.61;100928.25;5106549;27;20063;-73
2022/05/21 00:28:49;;;;;;;4.15;2.10;;;;;;;15.98;69.20;100928.31;5105542;27;20066;-73
2022/05/21 00:31:17;;;;;;;4.47;2.58;;;;;;;15.78;70.36;100949.19;5104672;27;20053;-73
2022/05/21 00:33:46;;;;;;;2.80;2.10;;;;;;;15.76;70.42;100965.16;5098708;28;20059;-73
2022/05/21 00:36:13;;;;;;;9.57;2.60;;;;;;;15.69;70.29;100958.59;5106003;27;20039;-73
2022/05/21 00:38:41;;;;;;;5.45;2.53;;;;;;;16.04;69.33;100959.59;5106369;28;20460;-73
2022/05/21 00:41:10;;;;;;;7.32;2.60;;;;;;;16.03;69.04;100959.72;5105757;28;20104;-73
2022/05/21 00:43:41;;;;;;;5.05;2.17;;;;;;;15.95;69.60;100964.72;5105732;28;20083;-73
2022/05/21 00:46:10;;;;;;;3.75;2.20;;;;;;;16.26;69.46;100973.97;5104986;27;20387;-73
2022/05/21 00:48:38;;;;;;;4.70;2.30;;;;;;;16.32;68.93;100963.78;5097211;27;20075;-73
2022/05/21 00:51:11;;;;;;;7.95;2.50;;;;;;;16.16;69.33;100967.63;5104994;27;20505;-73
2022/05/21 00:53:38;;;;;;;5.13;1.98;;;;;;;16.06;69.79;100980.66;5104560;27;20487;-73
2022/05/21 00:56:06;;;;;;;7.20;2.00;;;;;;;15.93;70.09;100980.66;5106368;27;20101;-73
2022/05/21 01:01:18;;;;;;;7.18;2.15;;;;;;;15.62;71.03;100978.47;5109513;27;20066;-73
2022/05/21 01:03:45;;;;;;;4.28;1.80;;;;;;;15.40;71.20;100996.72;5103541;27;20481;-73
2022/05/21 01:06:13;;;;;;;3.22;2.00;;;;;;;15.45;71.27;101008.66;5090299;28;20048;-73
2022/05/21 01:08:40;;;;;;;4.93;2.33;;;;;;;15.57;70.73;101018.44;5089717;28;20495;-73
2022/05/21 01:11:12;;;;;;;4.63;2.13;;;;;;;15.69;70.42;101031.75;5089409;28;20591;-73
2022/05/21 01:13:41;;;;;;;4.65;2.05;;;;;;;15.36;70.98;101029.56;5094497;27;20084;-73
2022/05/21 01:16:09;;;;;;;7.78;2.33;;;;;;;15.36;71.49;101030.44;5109456;27;20048;-73
2022/05/21 01:18:36;;;;;;;3.63;2.22;;;;;;;15.45;70.55;101032.44;5110069;27;20548;-73
2022/05/21 01:21:03;;;;;;;4.28;2.03;;;;;;;15.61;69.85;101037.56;5109351;27;20127;-73
2022/05/21 01:23:31;;;;;;;5.47;1.88;;;;;;;15.62;69.63;101038.41;5109741;27;20052;-73
2022/05/21 01:25:59;;;;;;;3.47;1.65;;;;;;;15.49;70.57;101041.03;5109823;27;20048;-73
2022/05/21 01:28:30;;;;;;;7.85;2.88;;;;;;;15.75;69.19;101044.56;5109742;27;20052;-73
2022/05/21 01:30:59;;;;;;;3.33;1.60;;;;;;;15.61;69.42;101037.56;5107030;27;20654;-73
2022/05/21 01:33:28;;;;;;;4.28;1.60;;;;;;;15.86;68.32;101063.19;5108703;27;20039;-73
2022/05/21 01:35:55;;;;;;;4.47;1.90;;;;;;;15.69;68.99;101047.63;5109184;27;20164;-73
2022/05/21 01:38:23;;;;;;;7.40;1.70;;;;;;;15.62;68.84;101041.06;5109896;28;20052;-73
2022/05/21 01:40:51;;;;;;;5.05;1.88;;;;;;;15.48;69.58;101056.00;5109164;27;20052;-73
2022/05/21 01:46:02;;;;;;;4.72;2.03;;;;;;;14.97;70.73;101062.94;5103220;27;20774;-73
2022/05/21 01:48:30;;;;;;;3.35;2.00;;;;;;;14.90;71.37;101066.06;5109585;28;20179;-73
2022/05/21 01:50:57;;;;;;;3.55;2.08;;;;;;;15.17;70.72;101068.72;5108231;27;20048;-73
2022/05/21 01:53:25;;;;;;;2.83;1.73;;;;;;;15.24;70.28;101076.16;5107507;28;20053;-73
2022/05/21 01:55:53;;;;;;;4.93;2.00;;;;;;;15.30;70.41;101075.72;5110414;27;20097;-73
2022/05/21 01:58:20;;;;;;;4.28;1.90;;;;;;;15.41;70.00;101078.50;5110831;27;20074;-73
2022/05/21 02:00:47;;;;;;;7.75;2.30;;;;;;;15.48;69.95;101079.78;5116864;27;20132;-73
2022/05/21 02:03:15;;;;;;;3.83;2.33;;;;;;;15.36;70.39;101080.63;5112359;27;20458;-73
2022/05/21 02:05:44;;;;;;;5.88;2.00;;;;;;;15.22;71.29;101080.69;5111303;27;20059;-73
2022/05/21 02:08:11;;;;;;;3.72;2.22;;;;;;;15.26;71.08;101076.06;5110440;27;20063;-73
2022/05/21 02:10:38;;;;;;;4.57;2.25;;;;;;;15.41;70.61;101089.06;5109911;27;20100;-73
2022/05/21 02:13:05;;;;;;;4.85;2.40;;;;;;;15.33;71.43;101095.84;5111133;27;20097;-73
2022/05/21 02:15:32;;;;;;;3.85;2.22;;;;;;;15.51;71.04;101089.38;5110801;27;20129;-73
2022/05/21 02:17:58;;;;;;;3.92;2.33;;;;;;;15.75;70.02;101078.94;5111732;27;20040;-73
2022/05/21 02:20:25;;;;;;;5.07;2.40;;;;;;;15.64;69.76;101079.66;5110744;28;20662;-73
2022/05/21 02:22:51;;;;;;;4.95;2.55;;;;;;;15.41;71.21;101099.66;5114766;27;20047;-73
2022/05/21 02:25:18;;;;;;;3.38;1.77;;;;;;;15.12;71.72;101095.44;5122227;27;20064;-73
2022/05/21 02:27:44;;;;;;;5.60;2.40;;;;;;;15.09;71.95;101107.03;5112455;27;20043;-73
2022/05/21 02:30:13;;;;;;;4.20;2.10;;;;;;;14.91;73.07;101102.94;5110522;27;20104;-73
2022/05/21 02:32:40;;;;;;;11.68;2.35;;;;;;;14.82;73.15;101107.97;5110318;27;20035;-73
2022/05/21 02:35:07;;;;;;;4.18;2.00;;;;;;;14.75;72.86;101114.56;5110770;27;20101;-73
2022/05/21 02:40:18;;;;;;;2.53;1.67;;;;;;;14.60;72.35;101129.56;5110368;27;20248;-74
2022/05/21 02:42:45;;;;;;;5.55;2.10;;;;;;;14.36;73.32;101142.50;5111020;28;20441;-73
2022/05/21 02:45:16;;;;;;;4.50;2.00;;;;;;;14.31;73.17;101149.78;5110157;27;20044;-73
2022/05/21 02:47:42;;;;;;;4.68;1.60;;;;;;;14.69;72.06;101158.03;5110693;27;20460;-73
2022/05/21 02:50:10;;;;;;;4.07;1.65;;;;;;;14.66;71.37;101157.38;5109231;27;20039;-73
2022/05/21 02:52:37;;;;;;;4.10;2.10;;;;;;;14.60;71.48;101163.88;5109878;27;20048;-73
2022/05/21 02:55:04;;;;;;;6.03;2.30;;;;;;;14.70;70.84;101164.16;5109486;27;20047;-73
2022/05/21 02:57:31;;;;;;;3.65;1.77;;;;;;;14.65;71.28;101160.97;5110957;27;20499;-73
2022/05/21 03:00:00;;;;;;;4.30;1.95;;;;;;;14.45;70.70;101176.22;5110204;28;20100;-73
2022/05/21 03:02:28;;;;;;;4.97;2.10;;;;;;;14.34;71.18;101176.00;5110775;27;20116;-73
2022/05/21 03:04:54;;;;;;;6.90;2.00;;;;;;;14.41;70.76;101187.88;5110286;27;20036;-73
2022/05/21 03:07:21;;;;;;;4.22;2.22;;;;;;;14.64;69.85;101197.06;5110320;27;20044;-73
2022/05/21 03:12:31;;;;;;;3.33;2.03;;;;;;;14.33;70.51;101208.59;5110043;28;20158;-73
2022/05/21 03:14:57;;;;;;;4.35;1.77;;;;;;;14.77;69.29;101219.13;5110217;27;20480;-73
2022/05/21 03:17:27;;;;;;;5.18;2.00;;;;;;;14.79;68.66;101216.38;5107433;27;20067;-73
2022/05/21 03:19:54;;;;;;;6.30;2.25;;;;;;;14.67;68.90;101211.88;5109319;28;20035;-73
2022/05/21 03:22:20;;;;;;;3.47;1.70;;;;;;;14.50;68.92;101229.56;5108670;27;20051;-72
2022/05/21 03:24:47;;;;;;;2.95;1.60;;;;;;;14.43;68.51;101240.59;5109814;27;20056;-72
2022/05/21 03:27:13;;;;;;;6.75;1.80;;;;;;;14.52;67.83;101240.88;5110507;28;20043;-73
2022/05/21 03:29:39;;;;;;;7.18;1.85;;;;;;;14.40;68.77;101248.69;5109383;28;20039;-73
2022/05/21 03:32:07;;;;;;;5.95;1.85;;;;;;;14.31;68.55;101250.03;5103760;27;20569;-73
2022/05/21 03:34:36;;;;;;;3.50;1.63;;;;;;;14.32;68.35;101264.94;5091846;28;20048;-72
2022/05/21 03:37:02;;;;;;;5.30;1.77;;;;;;;14.24;67.99;101276.88;5089739;28;20460;-72
2022/05/21 03:39:29;;;;;;;4.57;1.67;;;;;;;13.96;68.50;101267.94;5089149;28;20043;-72
2022/05/21 03:41:55;;;;;;;3.28;1.98;;;;;;;13.93;68.80;101267.25;5089728;28;20044;-72
2022/05/21 03:44:21;;;;;;;7.28;1.90;;;;;;;13.90;68.18;101276.16;5106168;28;20040;-74
2022/05/21 03:46:48;;;;;;;4.78;1.85;;;;;;;13.72;68.49;101273.72;5108953;27;20044;-73
2022/05/21 03:49:14;;;;;;;4.20;2.33;;;;;;;13.51;69.15;101274.00;5108689;27;20096;-73
2022/05/21 03:51:42;;;;;;;4.05;2.00;;;;;;;13.28;70.21;101278.81;5108707;28;20047;-73
2022/05/21 03:54:08;;;;;;;4.53;1.70;;;;;;;13.24;69.67;101283.41;5108887;27;20043;-73
2022/05/21 03:56:35;;;;;;;4.93;2.05;;;;;;;13.22;69.88;101308.13;5109551;27;20105;-73
2022/05/21 03:59:01;;;;;;;4.40;1.75;;;;;;;13.38;69.53;101308.97;5108692;27;20409;-73
2022/05/21 04:01:27;;;;;;;3.88;2.03;;;;;;;13.41;69.63;101299.16;5109187;28;20051;-73
2022/05/21 04:03:54;;;;;;;7.55;2.53;;;;;;;13.32;69.86;101312.81;5109424;27;20094;-72
2022/05/21 04:06:21;;;;;;;6.75;2.55;;;;;;;13.64;69.27;101308.41;5101734;28;20075;-74
2022/05/21 04:08:49;;;;;;;3.50;1.92;;;;;;;13.91;68.44;101317.41;5108307;27;20500;-74
2022/05/21 04:11:15;;;;;;;4.18;1.98;;;;;;;13.94;67.97;101311.09;5109967;27;20054;-74
2022/05/21 04:13:42;;;;;;;8.18;2.67;;;;;;;13.86;68.91;101313.31;5109310;28;20065;-74
2022/05/21 04:16:08;;;;;;;5.88;2.75;;;;;;;13.35;70.90;101317.03;5109553;28;20068;-74
2022/05/21 04:18:35;;;;;;;4.35;2.53;;;;;;;13.37;71.40;101310.78;5109328;28;20678;-74
2022/05/21 04:21:01;;;;;;;3.75;2.67;;;;;;;13.32;71.39;101315.44;5108493;27;20048;-74
2022/05/21 04:23:27;;;;;;;6.82;2.92;;;;;;;13.78;69.86;101305.03;5108489;27;20108;-74
2022/05/21 04:25:55;;;;;;;8.90;2.60;;;;;;;14.28;68.45;101304.75;5109175;27;20074;-74
2022/05/21 04:28:21;;;;;;;4.05;2.88;;;;;;;14.15;69.47;101313.38;5109037;27;20468;-74
2022/05/21 04:30:48;;;;;;;5.18;2.40;;;;;;;14.27;68.95;101309.19;5108619;28;20043;-74
2022/05/21 04:33:14;;;;;;;5.00;2.92;;;;;;;14.50;68.07;101316.66;5108569;27;20043;-74
2022/05/21 04:38:25;;;;;;;5.75;2.45;;;;;;;14.51;68.72;101315.72;5108720;28;20042;-74
2022/05/21 04:40:52;;;;;;;5.45;2.65;;;;;;;14.69;67.83;101305.84;5108527;28;20047;-74
2022/05/21 04:43:19;;;;;;;4.88;2.97;;;;;;;14.73;67.85;101309.16;5108449;28;20043;-74
2022/05/21 04:45:46;;;;;;;6.13;3.05;;;;;;;14.71;67.20;101311.06;5109615;28;20067;-74
2022/05/21 04:48:12;;;;;;;5.75;3.22;;;;;;;14.86;67.30;101310.09;5109211;28;20039;-73
2022/05/21 04:50:39;;;;;;;7.05;2.85;;;;;;;14.91;67.18;101311.53;5100849;28;20052;-74
2022/05/21 04:53:07;;;;;;;8.25;2.80;;;;;;;15.03;66.70;101318.72;5102971;27;20120;-73
2022/05/21 04:55:33;;;;;;;6.25;3.05;;;;;;;15.05;66.41;101315.97;5106436;27;20047;-73
2022/05/21 04:58:00;;;;;;;5.25;2.67;;;;;;;15.06;66.21;101321.19;5093937;28;20043;-73
2022/05/21 05:00:28;;;;;;;4.63;2.88;;;;;;;14.96;67.08;101319.19;5098780;28;20052;-73
2022/05/21 05:02:54;;;;;;;6.72;3.17;;;;;;;15.05;65.58;101318.63;5104069;27;20442;-73
2022/05/21 05:05:21;;;;;;;4.40;2.63;;;;;;;15.16;66.46;101318.81;5108849;28;20108;-73
2022/05/21 05:07:47;;;;;;;5.07;2.72;;;;;;;15.63;65.45;101321.16;5108627;28;20048;-73
2022/05/21 05:10:13;;;;;;;5.93;2.85;;;;;;;15.54;65.55;101333.19;5108858;28;20101;-73
2022/05/21 05:12:40;;;;;;;6.38;3.00;;;;;;;15.28;66.55;101331.28;5108503;28;20051;-73
2022/05/21 05:15:07;;;;;;;6.82;3.65;;;;;;;15.17;65.82;101336.38;5108458;28;20407;-73
2022/05/21 05:17:35;;;;;;;5.65;3.72;;;;;;;15.27;65.53;101329.56;5108918;28;20051;-73
2022/05/21 05:20:01;;;;;;;6.78;3.58;;;;;;;14.98;66.26;101333.13;5104704;27;20051;-73
2022/05/21 05:22:27;;;;;;;6.97;3.60;;;;;;;14.65;67.60;101337.78;5108389;27;20047;-73
2022/05/21 05:24:54;;;;;;;5.65;3.10;;;;;;;14.58;67.94;101327.59;5108541;27;20047;-73
2022/05/21 05:27:20;;;;;;;7.55;4.13;;;;;;;14.71;67.79;101329.53;5108737;28;20391;-73
2022/05/21 05:29:47;;;;;;;8.10;3.47;;;;;;;15.31;66.22;101341.66;5108248;28;20408;-73
2022/05/21 05:32:17;;;;;;;5.78;3.13;;;;;;;15.16;66.39;101334.66;5108285;27;20089;-74
2022/05/21 05:34:45;;;;;;;4.80;3.53;;;;;;;14.81;67.44;101330.69;5108332;27;20050;-73
2022/05/21 05:37:11;;;;;;;13.18;3.55;;;;;;;14.94;67.59;101331.63;5108373;27;20223;-73
2022/05/21 05:39:38;;;;;;;5.72;3.30;;;;;;;15.07;66.95;101328.16;5108204;27;20136;-73
2022/05/21 05:42:05;;;;;;;4.93;3.42;;;;;;;15.04;67.27;101330.97;5108970;27;20047;-72
2022/05/21 05:44:32;;;;;;;9.02;4.90;;;;;;;15.02;67.65;101326.72;5110053;27;20047;-73
2022/05/21 05:46:59;;;;;;;8.48;3.72;;;;;;;14.91;67.18;101331.81;5112292;27;20043;-73
2022/05/21 05:49:25;;;;;;;5.53;3.63;;;;;;;15.08;67.28;101331.63;5111500;27;20040;-72
2022/05/21 05:51:53;;;;;;;5.47;3.72;;;;;;;15.39;66.35;101334.09;5111237;27;20047;-72
2022/05/21 05:54:19;;;;;;;5.97;3.83;;;;;;;15.35;66.19;101335.22;5111743;27;20044;-72
2022/05/21 05:56:45;;;;;;;3.90;3.20;;;;;;;15.20;66.02;101325.59;5112239;27;20097;-72
2022/05/21 06:04:36;;;;;;;5.63;3.42;;;;;;;15.37;66.11;101328.03;5111190;27;20054;-73
2022/05/21 06:07:04;;;;;;;7.18;3.40;;;;;;;16.08;65.36;101320.84;5111820;28;20047;-73
2022/05/21 06:09:32;;;;;;;10.52;3.65;;;;;;;16.22;64.39;101317.28;5102652;27;20093;-73
2022/05/21 06:11:58;;;;;;;6.13;3.38;;;;;;;16.54;62.84;101323.94;5092045;28;20146;-73
2022/05/21 06:14:25;;;;;;;9.35;3.60;;;;;;;16.37;62.93;101324.22;5092190;28;20105;-73
2022/05/21 06:16:52;;;;;;;5.47;2.75;;;;;;;16.17;62.59;101321.19;5091411;28;20132;-73
2022/05/21 06:19:18;;;;;;;10.15;4.00;;;;;;;16.07;63.32;101313.03;5103478;27;20124;-73
2022/05/21 06:21:44;;;;;;;6.97;3.33;;;;;;;16.78;62.74;101316.16;5110386;27;20059;-73
2022/05/21 06:24:12;;;;;;;7.53;3.00;;;;;;;17.06;60.44;101314.28;5094746;28;20043;-73
2022/05/21 06:26:38;;;;;;;6.03;4.13;;;;;;;16.61;60.91;101312.97;5093809;28;20399;-74
2022/05/21 06:29:05;;;;;;;9.57;3.30;;;;;;;16.82;59.74;101316.78;5109865;28;20104;-73
2022/05/21 06:31:32;;;;;;;7.22;3.20;;;;;;;16.50;61.39;101322.47;5109389;27;20093;-73
2022/05/21 06:33:58;;;;;;;5.93;3.42;;;;;;;16.01;61.44;101313.41;5104931;27;20055;-73
2022/05/21 06:36:24;;;;;;;5.07;2.85;;;;;;;15.58;62.98;101324.13;5107463;27;20599;-73
2022/05/21 06:38:52;;;;;;;4.60;3.15;;;;;;;15.87;62.31;101310.81;5109084;28;20112;-74
2022/05/21 06:41:20;;;;;;;4.10;2.88;;;;;;;15.85;61.39;101316.19;5106643;27;20415;-74
2022/05/21 06:43:46;;;;;;;4.97;3.55;;;;;;;15.78;62.25;101319.34;5111035;28;20043;-73
2022/05/21 06:46:12;;;;;;;5.28;3.40;;;;;;;16.18;61.58;101307.88;5111051;28;20043;-73
2022/05/21 06:48:39;;;;;;;6.22;3.60;;;;;;;16.31;60.02;101307.91;5109769;28;20476;-73
2022/05/21 06:51:06;;;;;;;5.45;3.10;;;;;;;16.04;60.02;101305.25;5109352;27;20050;-72
2022/05/21 06:53:33;;;;;;;7.07;3.70;;;;;;;15.92;60.70;101300.78;5095591;27;20048;-73
2022/05/21 06:56:00;;;;;;;9.70;4.07;;;;;;;15.89;60.71;101311.59;5113687;27;20126;-72
2022/05/21 06:58:27;;;;;;;6.10;3.45;;;;;;;16.03;60.90;101303.59;5131337;27;20047;-73
2022/05/21 07:00:54;;;;;;;8.25;3.20;;;;;;;15.85;59.54;101300.31;5109732;27;20096;-73
2022/05/21 07:03:20;;;;;;;6.50;3.40;;;;;;;15.72;61.71;101299.44;5110148;27;20047;-72
2022/05/21 07:08:30;;;;;;;5.85;3.25;;;;;;;16.06;60.17;101298.94;5104626;28;20054;-72
2022/05/21 07:10:57;;;;;;;9.15;3.67;;;;;;;16.31;60.15;101306.09;5100875;27;20047;-72
2022/05/21 07:13:24;;;;;;;10.10;3.33;;;;;;;16.51;59.43;101307.44;5110651;28;20047;-73
2022/05/21 07:15:54;;;;;;;10.40;3.70;;;;;;;16.62;58.72;101312.03;5110310;28;20096;-72
2022/05/21 07:18:22;;;;;;;6.85;3.15;;;;;;;16.40;58.97;101310.81;5110217;28;20085;-72
2022/05/21 07:20:49;;;;;;;10.43;3.35;;;;;;;16.51;59.12;101313.56;5107985;27;20483;-72
2022/05/21 07:23:16;;;;;;;7.82;3.42;;;;;;;16.62;59.03;101302.28;5098143;27;20044;-73
2022/05/21 07:25:44;;;;;;;5.68;3.38;;;;;;;16.58;58.32;101310.53;5089857;27;20044;-74
2022/05/21 07:28:11;;;;;;;6.13;3.30;;;;;;;16.57;58.92;101308.84;5098061;28;20051;-73
2022/05/21 07:30:38;;;;;;;6.93;3.03;;;;;;;16.61;57.50;101315.63;5096961;28;20115;-73
2022/05/21 07:33:10;;;;;;;4.28;3.03;;;;;;;16.59;57.52;101321.03;5109554;27;20043;-73
2022/05/21 07:35:37;;;;;;;9.40;3.88;;;;;;;16.83;57.58;101313.22;5093184;28;20101;-72
2022/05/21 07:38:04;;;;;;;7.10;3.05;;;;;;;16.93;58.03;101327.50;5090013;28;20047;-73
2022/05/21 07:40:35;;;;;;;10.43;3.45;;;;;;;16.98;56.91;101315.66;5093368;27;20092;-72
2022/05/21 07:43:12;;;;;;;6.40;3.03;;;;;;;17.25;56.85;101318.19;5094941;27;20044;-72
2022/05/21 07:45:39;;;;;;;6.57;3.13;;;;;;;17.48;56.26;101313.88;5099444;27;20051;-72
2022/05/21 07:48:09;;;;;;;7.05;3.25;;;;;;;17.42;56.42;101319.63;5108567;28;20061;-72
2022/05/21 07:50:36;;;;;;;8.25;3.13;;;;;;;17.57;55.81;101312.44;5104139;27;20571;-71
2022/05/21 07:53:03;;;;;;;5.15;3.10;;;;;;;17.72;56.48;101313.97;5099103;27;20067;-71
2022/05/21 07:55:29;;;;;;;5.57;2.92;;;;;;;17.82;55.90;101315.00;5090594;28;20052;-71
2022/05/21 07:57:56;;;;;;;4.88;3.00;;;;;;;18.07;54.74;101312.22;5102670;28;20051;-71
2022/05/21 08:00:23;;;;;;;7.28;3.03;;;;;;;18.20;55.09;101315.69;5103315;28;20442;-71
2022/05/21 08:02:49;;;;;;;7.43;3.33;;;;;;;17.78;55.22;101326.78;5104535;27;20127;-72
2022/05/21 08:05:17;;;;;;;7.30;3.30;;;;;;;17.55;55.70;101332.88;5104210;27;20058;-71
2022/05/21 08:07:49;;;;;;;6.40;3.50;;;;;;;17.61;55.43;101333.31;5108357;28;20100;-71
2022/05/21 08:10:16;;;;;;;8.45;3.35;;;;;;;17.24;56.39;101332.38;5106290;28;20056;-71
2022/05/21 08:12:42;;;;;;;5.18;3.33;;;;;;;17.21;57.03;101334.41;5088919;28;20067;-71
2022/05/21 08:15:10;;;;;;;4.68;3.42;;;;;;;17.07;57.35;101324.78;5099245;28;20051;-72
2022/05/21 08:17:36;;;;;;;9.07;3.95;;;;;;;16.72;58.46;101327.19;5108717;28;20051;-72
2022/05/21 08:20:03;;;;;;;16.20;4.30;;;;;;;16.78;59.14;101332.06;5102593;28;20519;-72
2022/05/21 08:28:00;;;;;;;7.07;4.60;;;;;;;17.12;58.69;101343.84;5097563;28;20211;-73
2022/05/21 08:30:26;;;;;;;5.25;3.72;;;;;;;17.18;58.73;101335.47;5105469;28;20076;-73
2022/05/21 08:32:59;;;;;;;6.65;3.70;;;;;;;16.72;59.16;101344.88;5108580;27;20044;-71
2022/05/21 08:35:25;;;;;;;8.48;4.43;;;;;;;16.67;59.84;101342.53;5100930;27;20047;-71
2022/05/21 08:37:53;;;;;;;8.80;4.05;;;;;;;16.38;60.16;101330.34;5104104;27;20132;-72
2022/05/21 08:40:20;;;;;;;7.97;4.10;;;;;;;16.09;61.23;101329.63;5108186;28;20560;-73
2022/05/21 08:42:55;;;;;;;7.07;3.78;;;;;;;16.08;61.85;101312.91;5108735;28;20039;-72
2022/05/21 08:45:23;;;;;;;8.63;4.35;;;;;;;16.11;61.71;101330.41;5108202;28;20096;-71
2022/05/21 08:48:03;;;;;;;8.18;4.40;;;;;;;16.50;61.25;101350.72;5108649;28;20044;-71
2022/05/21 08:50:34;;;;;;;9.43;5.30;;;;;;;15.97;63.08;101338.34;5100197;27;20140;-72
2022/05/21 08:53:05;;;;;;;8.27;4.85;;;;;;;16.35;62.15;101335.84;5108807;27;20103;-72
2022/05/21 08:55:34;;;;;;;12.48;4.80;;;;;;;16.69;62.24;101332.69;5106099;27;20043;-71
2022/05/21 08:58:04;;;;;;;6.60;4.13;;;;;;;17.25;59.99;101334.09;5108402;28;20313;-73
2022/05/21 09:00:35;;;;;;;6.90;4.03;;;;;;;17.14;59.95;101343.75;5108420;28;20114;-72
2022/05/21 09:03:06;;;;;;;7.00;4.68;;;;;;;16.62;61.17;101336.72;5108798;27;20101;-72
2022/05/21 09:05:33;;;;;;;8.45;4.75;;;;;;;16.39;62.09;101337.34;5106309;27;20051;-72
2022/05/21 09:08:10;;;;;;;8.48;4.88;;;;;;;16.62;61.96;101349.09;5107475;28;20061;-72
2022/05/21 09:10:49;;;;;;;10.80;4.65;;;;;;;16.94;61.59;101337.16;5108066;27;20040;-71
2022/05/21 09:13:20;;;;;;;10.20;5.07;;;;;;;17.13;60.56;101349.97;5108435;27;20039;-72
2022/05/21 09:18:34;;;;;;;11.30;4.95;;;;;;;17.33;60.48;101342.34;5067522;27;20516;-72
2022/05/21 09:21:03;;;;;;;7.05;4.25;;;;;;;17.91;60.21;101351.47;5110677;27;20070;-72
2022/05/21 09:23:48;;;;;;;8.43;3.88;;;;;;;18.62;58.15;101350.66;5112555;27;20079;-72
2022/05/21 09:26:15;;;;;;;9.43;3.92;;;;;;;18.65;57.67;101342.44;5113001;27;20131;-71
2022/05/21 09:28:41;;;;;;;7.03;3.83;;;;;;;18.41;57.51;101332.66;5106902;27;20073;-72
2022/05/21 09:31:11;;;;;;;5.03;3.80;;;;;;;18.61;57.97;101338.31;5119599;27;20040;-72
2022/05/21 09:33:40;;;;;;;8.30;3.90;;;;;;;18.75;57.97;101328.34;5110609;27;20111;-72
2022/05/21 09:36:07;;;;;;;7.40;3.88;;;;;;;19.19;58.00;101338.19;5111091;28;20048;-71
2022/05/21 09:38:38;;;;;;;7.72;4.05;;;;;;;19.12;56.83;101323.69;5095495;27;20057;-72
2022/05/21 09:41:11;;;;;;;6.65;3.83;;;;;;;18.67;56.66;101316.59;5101341;27;20051;-73
2022/05/21 09:46:27;;;;;;;8.55;4.15;;;;;;;19.56;55.89;101316.69;5118972;27;20127;-73
2022/05/21 09:48:56;;;;;;;6.28;3.88;;;;;;;19.72;56.65;101322.47;5107384;27;20043;-72
2022/05/21 09:51:26;;;;;;;8.23;4.07;;;;;;;19.78;55.76;101314.84;5114739;27;20047;-72
2022/05/21 09:53:53;;;;;;;5.82;3.78;;;;;;;19.90;54.60;101311.19;5109958;27;20567;-72
2022/05/21 09:56:23;;;;;;;6.93;3.40;;;;;;;20.38;55.03;101322.31;5112176;28;20044;-72
2022/05/21 09:58:51;;;;;;;26.15;4.03;;;;;;;21.23;51.74;101317.69;5111474;28;20379;-72
2022/05/21 10:01:36;;;;;;;4.95;3.03;;;;;;;20.37;51.49;101320.59;5108788;27;20048;-72
2022/05/21 10:04:12;;;;;;;7.68;2.97;;;;;;;20.51;52.04;101314.13;5103668;27;20124;-72
2022/05/21 10:06:43;;;;;;;7.57;2.97;;;;;;;21.31;51.26;101306.34;5112204;27;20426;-72
2022/05/21 10:12:04;;;;;;;7.22;2.95;;;;;;;20.67;49.76;101311.00;5091110;28;20055;-73
2022/05/21 10:14:34;;;;;;;7.43;2.67;;;;;;;20.00;50.60;101305.94;5092069;28;20097;-73
2022/05/21 10:17:06;;;;;;;6.78;2.80;;;;;;;19.22;53.79;101307.84;5091768;28;20101;-73
2022/05/21 10:19:39;;;;;;;7.60;2.78;;;;;;;19.31;54.01;101318.63;5098797;28;20047;-74
2022/05/21 10:22:38;;;;;;;6.28;2.70;;;;;;;19.55;52.92;101321.16;5110976;27;20044;-74
2022/05/21 10:25:08;;;;;;;4.28;2.70;;;;;;;18.96;53.82;101318.72;5102052;27;20035;-73
2022/05/21 10:27:55;;;;;;;6.40;3.10;;;;;;;18.64;53.94;101328.31;5106486;28;20051;-75
2022/05/21 10:30:27;;;;;;;5.38;3.38;;;;;;;18.88;54.93;101329.06;5102848;28;20117;-72
2022/05/21 10:33:18;;;;;;;6.15;2.72;;;;;;;18.72;53.66;101320.63;5112357;28;20040;-72
2022/05/21 10:35:57;;;;;;;5.68;3.15;;;;;;;18.70;55.66;101327.84;5111726;27;20051;-72
2022/05/21 10:38:40;;;;;;;7.03;3.28;;;;;;;18.71;55.43;101321.56;5112014;27;20127;-70
2022/05/21 10:41:15;;;;;;;5.15;3.20;;;;;;;18.51;54.89;101322.25;5112338;27;20093;-69
2022/05/21 10:43:59;;;;;;;5.53;2.95;;;;;;;18.91;55.16;101331.53;5101026;27;20686;-71
2022/05/21 10:46:37;;;;;;;4.20;2.88;;;;;;;18.74;53.70;101331.09;5107506;27;20052;-70
2022/05/21 10:49:31;;;;;;;6.53;3.00;;;;;;;18.75;54.05;101328.34;5108691;27;20051;-70
2022/05/21 10:52:02;;;;;;;9.20;2.97;;;;;;;19.14;53.65;101326.25;5110410;27;20040;-71
2022/05/21 10:54:44;;;;;;;4.93;3.17;;;;;;;19.31;53.43;101333.72;5112033;27;20047;-69
2022/05/21 10:57:24;;;;;;;5.90;3.25;;;;;;;19.37;53.05;101333.22;5107034;28;20120;-70
2022/05/21 11:00:05;;;;;;;7.88;3.17;;;;;;;19.35;52.77;101328.06;5110177;27;20040;-69
2022/05/21 11:03:04;;;;;;;5.10;3.30;;;;;;;19.16;53.71;101342.91;5112251;27;20521;-70
2022/05/21 11:06:04;;;;;;;21.08;4.20;;;;;;;18.46;54.63;101340.28;5085531;27;20044;-69
2022/05/21 11:08:42;;;;;;;5.20;3.03;;;;;;;18.64;54.82;101330.13;5102225;28;20048;-71
2022/05/21 11:11:19;;;;;;;4.80;3.00;;;;;;;18.76;55.27;101322.06;5091231;28;20047;-71
2022/05/21 11:13:55;;;;;;;6.00;2.80;;;;;;;18.69;54.42;101325.31;5088843;28;20557;-71
2022/05/21 11:16:29;;;;;;;6.35;3.40;;;;;;;18.72;54.78;101333.91;5090498;28;20210;-71
2022/05/21 11:19:00;;;;;;;7.47;3.10;;;;;;;18.77;54.67;101334.38;5103775;28;20413;-71
2022/05/21 11:21:31;;;;;;;7.30;3.70;;;;;;;18.69;55.13;101325.31;5110207;27;20055;-68
2022/05/21 11:24:03;;;;;;;6.45;3.28;;;;;;;18.72;54.30;101333.03;5110364;27;20339;-68
2022/05/21 11:26:35;;;;;;;7.53;3.63;;;;;;;18.87;54.57;101326.56;5109901;27;20044;-67
2022/05/21 11:29:08;;;;;;;7.63;3.47;;;;;;;19.32;53.65;101314.16;5109968;28;20063;-68
2022/05/21 11:37:21;;;;;;;5.22;3.05;;;;;;;19.04;53.00;101314.59;5110250;27;20059;-68
2022/05/21 11:39:48;;;;;;;9.40;4.13;;;;;;;18.81;53.65;101306.59;5109656;28;20042;-68
2022/05/21 11:42:17;;;;;;;5.68;3.25;;;;;;;18.86;53.45;101325.72;5110473;28;20092;-69
2022/05/21 11:44:56;;;;;;;6.80;3.03;;;;;;;19.49;52.32;101315.50;5110310;28;20040;-68
2022/05/21 11:47:54;;;;;;;7.72;3.50;;;;;;;20.37;52.17;101307.28;5095864;28;20185;-68
2022/05/21 11:50:26;;;;;;;7.93;3.35;;;;;;;20.85;51.79;101304.09;5105370;27;20130;-68
2022/05/21 11:52:58;;;;;;;;;;;;;;;20.05;50.71;101303.78;5099059;28;20040;-71
2022/05/21 11:55:27;;;;;;;7.07;3.63;;;;;;;20.07;52.24;101296.50;5109917;27;19920;-71
2022/05/21 11:57:56;;;;;;;8.23;3.72;;;;;;;20.04;51.38;101307.41;5109108;28;20523;-71
2022/05/21 12:00:44;;;;;;;7.72;3.50;;;;;;;20.27;51.50;101313.47;5109384;27;20659;-72
2022/05/21 12:03:15;;;;;;;6.80;3.25;;;;;;;20.96;51.55;101301.38;5104258;27;20064;-70
2022/05/21 12:06:17;;;;;;;6.35;3.10;;;;;;;20.49;49.61;101309.91;5106396;28;20051;-70
2022/05/21 12:08:47;;;;;;;7.10;2.95;;;;;;;20.66;50.87;101312.81;5109653;28;20043;-71
2022/05/21 12:11:40;;;;;;;8.93;3.10;;;;;;;21.28;49.68;101320.81;5110463;27;20043;-69
2022/05/21 12:14:14;;;;;;;5.93;2.88;;;;;;;20.41;50.42;101323.88;5109963;28;20055;-69
2022/05/21 12:16:48;;;;;;;6.95;3.15;;;;;;;21.28;51.53;101310.13;5102724;28;20052;-69